sensor_id;sensor_type;location;lat;lon;timestamp;temperature;humidity
23721;DHT22;42950;52.134;5.578;2023-04-15T00:00:30;8.40;99.90
23721;DHT22;42950;52.134;5.578;2023-04-15T00:02:56;8.40;99.90
23721;DHT22;42950;52.134;5.578;2023-04-15T00:05:22;8.40;99.90
23721;DHT22;42950;52.134;5.578;2023-04-15T00:07:48;8.30;99.90
23721;DHT22;42950;52.134;5.578;2023-04-15T00:10:13;8.30;99.90
23721;DHT22;42950;52.134;5.578;2023-04-15T00:12:40;8.20;99.90
23721;DHT22;42950;52.134;5.578;2023-04-15T00:15:08;8.20;99.90
23721;DHT22;42950;52.134;5.578;2023-04-15T00:17:34;8.20;99.90
23721;DHT22;42950;52.134;5.578;2023-04-15T00:20:00;8.20;99.90
23721;DHT22;42950;52.134;5.578;2023-04-15T00:22:26;8.10;99.90
23721;DHT22;42950;52.134;5.578;2023-04-15T00:24:52;8.10;99.90
23721;DHT22;42950;52.134;5.578;2023-04-15T00:27:18;8.10;99.90
23721;DHT22;42950;52.134;5.578;2023-04-15T00:29:44;8.20;99.90
23721;DHT22;42950;52.134;5.578;2023-04-15T00:32:10;8.10;99.90
23721;DHT22;42950;52.134;5.578;2023-04-15T00:34:37;8.10;99.90
23721;DHT22;42950;52.134;5.578;2023-04-15T00:37:06;8.00;99.90
23721;DHT22;42950;52.134;5.578;2023-04-15T00:39:32;8.00;99.90
23721;DHT22;42950;52.134;5.578;2023-04-15T00:41:58;8.00;99.90
23721;DHT22;42950;52.134;5.578;2023-04-15T00:44:24;7.90;99.90
23721;DHT22;42950;52.134;5.578;2023-04-15T00:46:50;7.90;99.90
23721;DHT22;42950;52.134;5.578;2023-04-15T00:49:16;7.90;99.90
23721;DHT22;42950;52.134;5.578;2023-04-15T00:51:45;7.80;99.90
23721;DHT22;42950;52.134;5.578;2023-04-15T00:54:10;7.80;99.90
23721;DHT22;42950;52.134;5.578;2023-04-15T00:56:37;7.80;99.90
23721;DHT22;42950;52.134;5.578;2023-04-15T00:59:05;7.70;99.90
23721;DHT22;42950;52.134;5.578;2023-04-15T01:01:34;7.70;99.90
23721;DHT22;42950;52.134;5.578;2023-04-15T01:04:01;7.70;99.90
23721;DHT22;42950;52.134;5.578;2023-04-15T01:06:27;7.70;99.90
23721;DHT22;42950;52.134;5.578;2023-04-15T01:08:55;7.70;99.90
23721;DHT22;42950;52.134;5.578;2023-04-15T01:11:20;7.70;99.90
23721;DHT22;42950;52.134;5.578;2023-04-15T01:13:51;7.60;99.90
23721;DHT22;42950;52.134;5.578;2023-04-15T01:16:19;7.60;99.90
23721;DHT22;42950;52.134;5.578;2023-04-15T01:18:45;7.50;99.90
23721;DHT22;42950;52.134;5.578;2023-04-15T01:21:11;7.50;99.90
23721;DHT22;42950;52.134;5.578;2023-04-15T01:23:38;7.50;99.90
23721;DHT22;42950;52.134;5.578;2023-04-15T01:26:05;7.50;99.90
23721;DHT22;42950;52.134;5.578;2023-04-15T01:28:32;7.50;99.90
23721;DHT22;42950;52.134;5.578;2023-04-15T01:31:09;7.40;99.90
23721;DHT22;42950;52.134;5.578;2023-04-15T01:33:36;7.40;99.90
23721;DHT22;42950;52.134;5.578;2023-04-15T01:36:04;7.40;99.90
23721;DHT22;42950;52.134;5.578;2023-04-15T01:38:31;7.40;99.90
23721;DHT22;42950;52.134;5.578;2023-04-15T01:40:57;7.40;99.90
23721;DHT22;42950;52.134;5.578;2023-04-15T01:43:24;7.40;99.90
23721;DHT22;42950;52.134;5.578;2023-04-15T01:45:50;7.40;99.90
23721;DHT22;42950;52.134;5.578;2023-04-15T01:48:17;7.30;99.90
23721;DHT22;42950;52.134;5.578;2023-04-15T01:50:43;7.30;99.90
23721;DHT22;42950;52.134;5.578;2023-04-15T01:53:09;7.20;99.90
23721;DHT22;42950;52.134;5.578;2023-04-15T01:55:35;7.20;99.90
23721;DHT22;42950;52.134;5.578;2023-04-15T01:58:01;7.20;99.90
23721;DHT22;42950;52.134;5.578;2023-04-15T02:00:27;7.20;99.90
23721;DHT22;42950;52.134;5.578;2023-04-15T02:02:54;7.20;99.90
23721;DHT22;42950;52.134;5.578;2023-04-15T02:05:19;7.20;99.90
23721;DHT22;42950;52.134;5.578;2023-04-15T02:07:45;7.10;99.90
23721;DHT22;42950;52.134;5.578;2023-04-15T02:10:11;7.10;99.90
23721;DHT22;42950;52.134;5.578;2023-04-15T02:12:40;7.10;99.90
23721;DHT22;42950;52.134;5.578;2023-04-15T02:15:07;7.00;99.90
23721;DHT22;42950;52.134;5.578;2023-04-15T02:17:33;7.00;99.90
23721;DHT22;42950;52.134;5.578;2023-04-15T02:20:00;7.00;99.90
23721;DHT22;42950;52.134;5.578;2023-04-15T02:22:26;7.00;99.90
23721;DHT22;42950;52.134;5.578;2023-04-15T02:24:52;7.00;99.90
23721;DHT22;42950;52.134;5.578;2023-04-15T02:27:18;6.90;99.90
23721;DHT22;42950;52.134;5.578;2023-04-15T02:29:44;7.00;99.90
23721;DHT22;42950;52.134;5.578;2023-04-15T02:32:11;7.00;99.90
23721;DHT22;42950;52.134;5.578;2023-04-15T02:34:38;6.90;99.90
23721;DHT22;42950;52.134;5.578;2023-04-15T02:37:08;7.00;99.90
23721;DHT22;42950;52.134;5.578;2023-04-15T02:39:36;6.90;99.90
23721;DHT22;42950;52.134;5.578;2023-04-15T02:42:02;6.90;99.90
23721;DHT22;42950;52.134;5.578;2023-04-15T02:44:29;6.90;99.90
23721;DHT22;42950;52.134;5.578;2023-04-15T02:46:56;6.90;99.90
23721;DHT22;42950;52.134;5.578;2023-04-15T02:49:23;6.90;99.90
23721;DHT22;42950;52.134;5.578;2023-04-15T02:51:49;6.90;99.90
23721;DHT22;42950;52.134;5.578;2023-04-15T02:54:19;6.80;99.90
23721;DHT22;42950;52.134;5.578;2023-04-15T02:56:45;6.90;99.90
23721;DHT22;42950;52.134;5.578;2023-04-15T02:59:11;6.90;99.90
23721;DHT22;42950;52.134;5.578;2023-04-15T03:01:37;6.80;99.90
23721;DHT22;42950;52.134;5.578;2023-04-15T03:04:03;6.80;99.90
23721;DHT22;42950;52.134;5.578;2023-04-15T03:06:29;6.90;99.90
23721;DHT22;42950;52.134;5.578;2023-04-15T03:08:55;6.80;99.90
23721;DHT22;42950;52.134;5.578;2023-04-15T03:11:21;6.80;99.90
23721;DHT22;42950;52.134;5.578;2023-04-15T03:13:47;6.80;99.90
23721;DHT22;42950;52.134;5.578;2023-04-15T03:16:13;6.80;99.90
23721;DHT22;42950;52.134;5.578;2023-04-15T03:18:39;6.80;99.90
23721;DHT22;42950;52.134;5.578;2023-04-15T03:21:06;6.80;99.90
23721;DHT22;42950;52.134;5.578;2023-04-15T03:23:31;6.80;99.90
23721;DHT22;42950;52.134;5.578;2023-04-15T03:26:00;6.80;99.90
23721;DHT22;42950;52.134;5.578;2023-04-15T03:28:26;6.80;99.90
23721;DHT22;42950;52.134;5.578;2023-04-15T03:30:52;6.80;99.90
23721;DHT22;42950;52.134;5.578;2023-04-15T03:33:18;6.80;99.90
23721;DHT22;42950;52.134;5.578;2023-04-15T03:35:44;6.80;99.90
23721;DHT22;42950;52.134;5.578;2023-04-15T03:38:11;6.80;99.90
23721;DHT22;42950;52.134;5.578;2023-04-15T03:40:39;6.70;99.90
23721;DHT22;42950;52.134;5.578;2023-04-15T03:43:04;6.70;99.90
23721;DHT22;42950;52.134;5.578;2023-04-15T03:45:30;6.70;99.90
23721;DHT22;42950;52.134;5.578;2023-04-15T03:47:56;6.70;99.90
23721;DHT22;42950;52.134;5.578;2023-04-15T03:50:22;6.60;99.90
23721;DHT22;42950;52.134;5.578;2023-04-15T03:52:47;6.60;99.90
23721;DHT22;42950;52.134;5.578;2023-04-15T03:55:13;6.50;99.90
23721;DHT22;42950;52.134;5.578;2023-04-15T03:57:40;6.60;99.90
23721;DHT22;42950;52.134;5.578;2023-04-15T04:00:07;6.50;99.90
23721;DHT22;42950;52.134;5.578;2023-04-15T04:02:36;6.50;99.90
23721;DHT22;42950;52.134;5.578;2023-04-15T04:05:02;6.50;99.90
23721;DHT22;42950;52.134;5.578;2023-04-15T04:07:27;6.50;99.90
23721;DHT22;42950;52.134;5.578;2023-04-15T04:09:53;6.50;99.90
23721;DHT22;42950;52.134;5.578;2023-04-15T04:12:19;6.50;99.90
23721;DHT22;42950;52.134;5.578;2023-04-15T04:14:45;6.50;99.90
23721;DHT22;42950;52.134;5.578;2023-04-15T04:17:10;6.40;99.90
23721;DHT22;42950;52.134;5.578;2023-04-15T04:19:36;6.40;99.90
23721;DHT22;42950;52.134;5.578;2023-04-15T04:22:01;6.40;99.90
23721;DHT22;42950;52.134;5.578;2023-04-15T04:24:27;6.40;99.90
23721;DHT22;42950;52.134;5.578;2023-04-15T04:26:53;6.40;99.90
23721;DHT22;42950;52.134;5.578;2023-04-15T04:29:18;6.40;99.90
23721;DHT22;42950;52.134;5.578;2023-04-15T04:31:44;6.40;99.90
23721;DHT22;42950;52.134;5.578;2023-04-15T04:34:11;6.40;99.90
23721;DHT22;42950;52.134;5.578;2023-04-15T04:36:36;6.30;99.90
23721;DHT22;42950;52.134;5.578;2023-04-15T04:39:02;6.30;99.90
23721;DHT22;42950;52.134;5.578;2023-04-15T04:41:28;6.30;99.90
23721;DHT22;42950;52.134;5.578;2023-04-15T04:43:54;6.30;99.90
23721;DHT22;42950;52.134;5.578;2023-04-15T04:46:20;6.30;99.90
23721;DHT22;42950;52.134;5.578;2023-04-15T04:48:45;6.30;99.90
23721;DHT22;42950;52.134;5.578;2023-04-15T04:51:11;6.30;99.90
23721;DHT22;42950;52.134;5.578;2023-04-15T04:53:37;6.30;99.90
23721;DHT22;42950;52.134;5.578;2023-04-15T04:56:03;6.30;99.90
23721;DHT22;42950;52.134;5.578;2023-04-15T04:58:29;6.30;99.90
23721;DHT22;42950;52.134;5.578;2023-04-15T05:00:54;6.20;99.90
23721;DHT22;42950;52.134;5.578;2023-04-15T05:03:21;6.30;99.90
23721;DHT22;42950;52.134;5.578;2023-04-15T05:05:46;6.20;99.90
23721;DHT22;42950;52.134;5.578;2023-04-15T05:08:14;6.20;99.90
23721;DHT22;42950;52.134;5.578;2023-04-15T05:10:41;6.20;99.90
23721;DHT22;42950;52.134;5.578;2023-04-15T05:13:08;6.20;99.90
23721;DHT22;42950;52.134;5.578;2023-04-15T05:15:33;6.20;99.90
23721;DHT22;42950;52.134;5.578;2023-04-15T05:18:01;6.20;99.90
23721;DHT22;42950;52.134;5.578;2023-04-15T05:20:27;6.20;99.90
23721;DHT22;42950;52.134;5.578;2023-04-15T05:22:59;6.20;99.90
23721;DHT22;42950;52.134;5.578;2023-04-15T05:25:25;6.20;99.90
23721;DHT22;42950;52.134;5.578;2023-04-15T05:27:50;6.30;99.90
23721;DHT22;42950;52.134;5.578;2023-04-15T05:30:16;6.30;99.90
23721;DHT22;42950;52.134;5.578;2023-04-15T05:32:42;6.30;99.90
23721;DHT22;42950;52.134;5.578;2023-04-15T05:35:07;6.30;99.90
23721;DHT22;42950;52.134;5.578;2023-04-15T05:37:34;6.40;99.90
23721;DHT22;42950;52.134;5.578;2023-04-15T05:40:01;6.30;99.90
23721;DHT22;42950;52.134;5.578;2023-04-15T05:42:27;6.30;99.90
23721;DHT22;42950;52.134;5.578;2023-04-15T05:44:52;6.40;99.90
23721;DHT22;42950;52.134;5.578;2023-04-15T05:47:18;6.40;99.90
23721;DHT22;42950;52.134;5.578;2023-04-15T05:49:44;6.40;99.90
23721;DHT22;42950;52.134;5.578;2023-04-15T05:52:09;6.40;99.90
23721;DHT22;42950;52.134;5.578;2023-04-15T05:54:35;6.50;99.90
23721;DHT22;42950;52.134;5.578;2023-04-15T05:57:00;6.60;99.90
23721;DHT22;42950;52.134;5.578;2023-04-15T05:59:27;6.60;99.90
23721;DHT22;42950;52.134;5.578;2023-04-15T06:01:53;6.60;99.90
23721;DHT22;42950;52.134;5.578;2023-04-15T06:04:18;6.70;99.90
23721;DHT22;42950;52.134;5.578;2023-04-15T06:06:44;6.80;99.90
23721;DHT22;42950;52.134;5.578;2023-04-15T06:09:09;6.70;99.90
23721;DHT22;42950;52.134;5.578;2023-04-15T06:11:35;6.80;99.90
23721;DHT22;42950;52.134;5.578;2023-04-15T06:14:01;6.90;99.90
23721;DHT22;42950;52.134;5.578;2023-04-15T06:16:27;7.00;99.90
23721;DHT22;42950;52.134;5.578;2023-04-15T06:18:52;7.00;99.90
23721;DHT22;42950;52.134;5.578;2023-04-15T06:21:18;7.00;99.90
23721;DHT22;42950;52.134;5.578;2023-04-15T06:23:44;7.10;99.90
23721;DHT22;42950;52.134;5.578;2023-04-15T06:26:10;7.10;99.90
23721;DHT22;42950;52.134;5.578;2023-04-15T06:28:36;7.30;99.90
23721;DHT22;42950;52.134;5.578;2023-04-15T06:31:01;7.40;99.90
23721;DHT22;42950;52.134;5.578;2023-04-15T06:33:27;7.50;99.90
23721;DHT22;42950;52.134;5.578;2023-04-15T06:35:53;7.60;99.90
23721;DHT22;42950;52.134;5.578;2023-04-15T06:38:18;7.60;99.90
23721;DHT22;42950;52.134;5.578;2023-04-15T06:40:44;7.70;99.90
23721;DHT22;42950;52.134;5.578;2023-04-15T06:43:10;7.70;99.90
23721;DHT22;42950;52.134;5.578;2023-04-15T06:45:35;7.80;99.90
23721;DHT22;42950;52.134;5.578;2023-04-15T06:48:01;7.90;99.90
23721;DHT22;42950;52.134;5.578;2023-04-15T06:50:26;8.00;99.90
23721;DHT22;42950;52.134;5.578;2023-04-15T06:52:53;8.00;99.90
23721;DHT22;42950;52.134;5.578;2023-04-15T06:55:19;8.10;99.90
23721;DHT22;42950;52.134;5.578;2023-04-15T06:57:44;8.20;99.90
23721;DHT22;42950;52.134;5.578;2023-04-15T07:00:10;8.30;99.90
23721;DHT22;42950;52.134;5.578;2023-04-15T07:02:36;8.40;99.90
23721;DHT22;42950;52.134;5.578;2023-04-15T07:05:02;8.50;99.90
23721;DHT22;42950;52.134;5.578;2023-04-15T07:07:29;8.60;99.90
23721;DHT22;42950;52.134;5.578;2023-04-15T07:09:54;8.70;99.90
23721;DHT22;42950;52.134;5.578;2023-04-15T07:12:20;8.70;99.90
23721;DHT22;42950;52.134;5.578;2023-04-15T07:14:46;8.80;99.90
23721;DHT22;42950;52.134;5.578;2023-04-15T07:17:11;8.80;99.90
23721;DHT22;42950;52.134;5.578;2023-04-15T07:19:37;8.90;99.90
23721;DHT22;42950;52.134;5.578;2023-04-15T07:22:03;8.90;99.90
23721;DHT22;42950;52.134;5.578;2023-04-15T07:24:28;9.00;99.90
23721;DHT22;42950;52.134;5.578;2023-04-15T07:26:54;9.10;99.90
23721;DHT22;42950;52.134;5.578;2023-04-15T07:29:23;9.20;99.90
23721;DHT22;42950;52.134;5.578;2023-04-15T07:31:49;9.30;99.90
23721;DHT22;42950;52.134;5.578;2023-04-15T07:34:15;9.40;99.90
23721;DHT22;42950;52.134;5.578;2023-04-15T07:36:41;9.50;99.90
23721;DHT22;42950;52.134;5.578;2023-04-15T07:39:07;9.50;99.90
23721;DHT22;42950;52.134;5.578;2023-04-15T07:41:33;9.60;99.90
23721;DHT22;42950;52.134;5.578;2023-04-15T07:43:59;9.60;99.90
23721;DHT22;42950;52.134;5.578;2023-04-15T07:46:24;9.60;99.90
23721;DHT22;42950;52.134;5.578;2023-04-15T07:48:52;9.70;99.90
23721;DHT22;42950;52.134;5.578;2023-04-15T07:51:18;9.70;99.90
23721;DHT22;42950;52.134;5.578;2023-04-15T07:53:45;9.70;99.90
23721;DHT22;42950;52.134;5.578;2023-04-15T07:56:11;9.80;99.90
23721;DHT22;42950;52.134;5.578;2023-04-15T07:58:37;9.80;99.90
23721;DHT22;42950;52.134;5.578;2023-04-15T08:01:03;9.80;99.90
23721;DHT22;42950;52.134;5.578;2023-04-15T08:03:29;9.90;99.90
23721;DHT22;42950;52.134;5.578;2023-04-15T08:05:55;9.90;99.90
23721;DHT22;42950;52.134;5.578;2023-04-15T08:08:20;10.00;99.90
23721;DHT22;42950;52.134;5.578;2023-04-15T08:10:46;10.10;99.90
23721;DHT22;42950;52.134;5.578;2023-04-15T08:13:12;10.20;99.90
23721;DHT22;42950;52.134;5.578;2023-04-15T08:15:37;10.20;99.90
23721;DHT22;42950;52.134;5.578;2023-04-15T08:18:03;10.20;99.90
23721;DHT22;42950;52.134;5.578;2023-04-15T08:20:28;10.20;99.90
23721;DHT22;42950;52.134;5.578;2023-04-15T08:22:54;10.30;99.90
23721;DHT22;42950;52.134;5.578;2023-04-15T08:25:20;10.30;99.90
23721;DHT22;42950;52.134;5.578;2023-04-15T08:27:46;10.20;99.90
23721;DHT22;42950;52.134;5.578;2023-04-15T08:30:12;10.30;99.90
23721;DHT22;42950;52.134;5.578;2023-04-15T08:32:37;10.20;99.90
23721;DHT22;42950;52.134;5.578;2023-04-15T08:35:03;10.20;99.90
23721;DHT22;42950;52.134;5.578;2023-04-15T08:37:29;10.20;99.90
23721;DHT22;42950;52.134;5.578;2023-04-15T08:39:54;10.10;99.90
23721;DHT22;42950;52.134;5.578;2023-04-15T08:42:29;10.20;99.90
23721;DHT22;42950;52.134;5.578;2023-04-15T08:44:58;10.30;99.90
23721;DHT22;42950;52.134;5.578;2023-04-15T08:47:25;10.40;99.90
23721;DHT22;42950;52.134;5.578;2023-04-15T08:49:54;10.50;99.90
23721;DHT22;42950;52.134;5.578;2023-04-15T08:52:24;10.50;99.90
23721;DHT22;42950;52.134;5.578;2023-04-15T08:54:53;10.60;99.90
23721;DHT22;42950;52.134;5.578;2023-04-15T08:57:24;10.60;99.90
23721;DHT22;42950;52.134;5.578;2023-04-15T08:59:51;10.80;99.90
23721;DHT22;42950;52.134;5.578;2023-04-15T09:02:18;10.80;99.90
23721;DHT22;42950;52.134;5.578;2023-04-15T09:04:43;10.90;99.90
23721;DHT22;42950;52.134;5.578;2023-04-15T09:07:09;11.00;99.90
23721;DHT22;42950;52.134;5.578;2023-04-15T09:09:34;11.00;99.90
23721;DHT22;42950;52.134;5.578;2023-04-15T09:12:01;11.10;99.90
23721;DHT22;42950;52.134;5.578;2023-04-15T09:14:28;11.00;99.90
23721;DHT22;42950;52.134;5.578;2023-04-15T09:19:23;11.00;99.90
23721;DHT22;42950;52.134;5.578;2023-04-15T09:21:52;11.00;99.90
23721;DHT22;42950;52.134;5.578;2023-04-15T09:24:17;11.20;99.90
23721;DHT22;42950;52.134;5.578;2023-04-15T09:26:43;11.30;99.90
23721;DHT22;42950;52.134;5.578;2023-04-15T09:29:10;11.30;99.90
23721;DHT22;42950;52.134;5.578;2023-04-15T09:31:38;11.40;99.90
23721;DHT22;42950;52.134;5.578;2023-04-15T09:34:04;11.50;99.90
23721;DHT22;42950;52.134;5.578;2023-04-15T09:36:50;11.50;99.90
23721;DHT22;42950;52.134;5.578;2023-04-15T09:39:16;11.60;99.90
23721;DHT22;42950;52.134;5.578;2023-04-15T09:41:42;11.70;99.90
23721;DHT22;42950;52.134;5.578;2023-04-15T09:44:22;11.80;99.90
23721;DHT22;42950;52.134;5.578;2023-04-15T09:46:47;11.90;99.90
23721;DHT22;42950;52.134;5.578;2023-04-15T09:49:13;12.00;99.90
23721;DHT22;42950;52.134;5.578;2023-04-15T09:51:38;12.10;99.90
23721;DHT22;42950;52.134;5.578;2023-04-15T09:54:04;12.10;99.90
23721;DHT22;42950;52.134;5.578;2023-04-15T09:56:37;12.20;99.90
23721;DHT22;42950;52.134;5.578;2023-04-15T09:59:06;12.30;99.90
23721;DHT22;42950;52.134;5.578;2023-04-15T10:01:31;12.20;99.90
23721;DHT22;42950;52.134;5.578;2023-04-15T10:03:57;12.20;99.90
23721;DHT22;42950;52.134;5.578;2023-04-15T10:06:25;12.50;99.90
23721;DHT22;42950;52.134;5.578;2023-04-15T10:08:51;12.50;99.90
23721;DHT22;42950;52.134;5.578;2023-04-15T10:11:18;12.60;99.90
23721;DHT22;42950;52.134;5.578;2023-04-15T10:13:46;12.70;99.90
23721;DHT22;42950;52.134;5.578;2023-04-15T10:16:14;12.80;99.90
23721;DHT22;42950;52.134;5.578;2023-04-15T10:18:45;12.70;99.90
23721;DHT22;42950;52.134;5.578;2023-04-15T10:21:12;12.80;99.90
23721;DHT22;42950;52.134;5.578;2023-04-15T10:23:44;12.80;99.90
23721;DHT22;42950;52.134;5.578;2023-04-15T10:26:11;12.60;99.90
23721;DHT22;42950;52.134;5.578;2023-04-15T10:28:39;12.50;99.90
23721;DHT22;42950;52.134;5.578;2023-04-15T10:31:05;12.60;99.90
23721;DHT22;42950;52.134;5.578;2023-04-15T10:33:31;12.60;99.90
23721;DHT22;42950;52.134;5.578;2023-04-15T10:35:58;12.50;99.90
23721;DHT22;42950;52.134;5.578;2023-04-15T10:38:41;12.70;99.90
23721;DHT22;42950;52.134;5.578;2023-04-15T10:44:03;12.40;99.90
23721;DHT22;42950;52.134;5.578;2023-04-15T10:49:08;12.60;99.90
23721;DHT22;42950;52.134;5.578;2023-04-15T10:51:37;12.70;99.90
23721;DHT22;42950;52.134;5.578;2023-04-15T10:54:15;12.90;99.90
23721;DHT22;42950;52.134;5.578;2023-04-15T10:56:42;12.90;99.90
23721;DHT22;42950;52.134;5.578;2023-04-15T10:59:08;12.80;99.90
23721;DHT22;42950;52.134;5.578;2023-04-15T11:02:11;12.80;99.90
23721;DHT22;42950;52.134;5.578;2023-04-15T11:04:53;12.90;99.90
23721;DHT22;42950;52.134;5.578;2023-04-15T11:12:39;13.20;99.90
23721;DHT22;42950;52.134;5.578;2023-04-15T11:20:31;13.30;99.90
23721;DHT22;42950;52.134;5.578;2023-04-15T11:22:56;13.30;99.90
23721;DHT22;42950;52.134;5.578;2023-04-15T11:25:23;13.60;99.90
23721;DHT22;42950;52.134;5.578;2023-04-15T11:27:50;13.60;99.90
23721;DHT22;42950;52.134;5.578;2023-04-15T11:30:18;13.70;99.90
23721;DHT22;42950;52.134;5.578;2023-04-15T11:32:46;13.80;99.90
23721;DHT22;42950;52.134;5.578;2023-04-15T11:35:11;13.80;99.90
23721;DHT22;42950;52.134;5.578;2023-04-15T11:37:37;13.80;99.90
23721;DHT22;42950;52.134;5.578;2023-04-15T11:40:03;13.90;99.90
23721;DHT22;42950;52.134;5.578;2023-04-15T11:42:28;13.90;99.90
23721;DHT22;42950;52.134;5.578;2023-04-15T11:45:13;13.60;99.90
23721;DHT22;42950;52.134;5.578;2023-04-15T11:47:41;13.20;99.90
23721;DHT22;42950;52.134;5.578;2023-04-15T11:52:58;13.00;99.90
23721;DHT22;42950;52.134;5.578;2023-04-15T11:55:24;12.90;99.90
23721;DHT22;42950;52.134;5.578;2023-04-15T12:00:34;13.20;99.90
23721;DHT22;42950;52.134;5.578;2023-04-15T12:06:12;13.10;99.90
23721;DHT22;42950;52.134;5.578;2023-04-15T12:08:59;13.10;99.90
23721;DHT22;42950;52.134;5.578;2023-04-15T12:16:43;13.00;99.90
23721;DHT22;42950;52.134;5.578;2023-04-15T12:19:10;13.00;99.90
23721;DHT22;42950;52.134;5.578;2023-04-15T12:21:38;13.10;99.90
23721;DHT22;42950;52.134;5.578;2023-04-15T12:24:08;13.40;99.90
23721;DHT22;42950;52.134;5.578;2023-04-15T12:26:54;13.30;99.90
23721;DHT22;42950;52.134;5.578;2023-04-15T12:29:26;13.40;99.90
23721;DHT22;42950;52.134;5.578;2023-04-15T12:32:06;13.70;99.90
23721;DHT22;42950;52.134;5.578;2023-04-15T12:34:34;13.80;99.90
23721;DHT22;42950;52.134;5.578;2023-04-15T12:37:02;13.70;99.90
23721;DHT22;42950;52.134;5.578;2023-04-15T12:39:30;13.40;99.90
23721;DHT22;42950;52.134;5.578;2023-04-15T12:41:57;13.30;99.90
23721;DHT22;42950;52.134;5.578;2023-04-15T12:44:24;13.20;99.90
23721;DHT22;42950;52.134;5.578;2023-04-15T12:46:50;13.40;99.90
23721;DHT22;42950;52.134;5.578;2023-04-15T12:49:18;13.40;99.90
23721;DHT22;42950;52.134;5.578;2023-04-15T12:51:51;13.20;99.90
23721;DHT22;42950;52.134;5.578;2023-04-15T12:54:17;13.10;99.90
23721;DHT22;42950;52.134;5.578;2023-04-15T12:56:44;13.10;99.90
23721;DHT22;42950;52.134;5.578;2023-04-15T12:59:11;13.30;99.90
23721;DHT22;42950;52.134;5.578;2023-04-15T13:01:37;13.60;99.90
23721;DHT22;42950;52.134;5.578;2023-04-15T13:04:04;13.60;99.90
23721;DHT22;42950;52.134;5.578;2023-04-15T13:06:29;13.60;99.90
23721;DHT22;42950;52.134;5.578;2023-04-15T13:08:58;13.10;99.90
23721;DHT22;42950;52.134;5.578;2023-04-15T13:11:24;13.00;99.90
23721;DHT22;42950;52.134;5.578;2023-04-15T13:13:50;12.90;99.90
23721;DHT22;42950;52.134;5.578;2023-04-15T13:16:17;13.00;99.90
23721;DHT22;42950;52.134;5.578;2023-04-15T13:18:43;13.00;99.90
23721;DHT22;42950;52.134;5.578;2023-04-15T13:21:11;12.80;99.90
23721;DHT22;42950;52.134;5.578;2023-04-15T13:23:36;12.70;99.90
23721;DHT22;42950;52.134;5.578;2023-04-15T13:26:02;12.70;99.90
23721;DHT22;42950;52.134;5.578;2023-04-15T13:28:28;13.00;99.90
23721;DHT22;42950;52.134;5.578;2023-04-15T13:30:53;13.10;99.90
23721;DHT22;42950;52.134;5.578;2023-04-15T13:33:19;13.10;99.90
23721;DHT22;42950;52.134;5.578;2023-04-15T13:35:45;13.00;99.90
23721;DHT22;42950;52.134;5.578;2023-04-15T13:38:10;13.10;99.90
23721;DHT22;42950;52.134;5.578;2023-04-15T13:40:36;12.90;99.90
23721;DHT22;42950;52.134;5.578;2023-04-15T13:43:02;12.70;99.90
23721;DHT22;42950;52.134;5.578;2023-04-15T13:45:28;12.50;99.90
23721;DHT22;42950;52.134;5.578;2023-04-15T13:47:55;12.40;99.90
23721;DHT22;42950;52.134;5.578;2023-04-15T13:50:20;12.50;99.90
23721;DHT22;42950;52.134;5.578;2023-04-15T13:52:46;12.30;99.90
23721;DHT22;42950;52.134;5.578;2023-04-15T13:55:11;12.10;99.90
23721;DHT22;42950;52.134;5.578;2023-04-15T13:57:37;12.10;99.90
23721;DHT22;42950;52.134;5.578;2023-04-15T14:00:03;12.10;99.90
23721;DHT22;42950;52.134;5.578;2023-04-15T14:02:29;12.00;99.90
23721;DHT22;42950;52.134;5.578;2023-04-15T14:04:55;12.10;99.90
23721;DHT22;42950;52.134;5.578;2023-04-15T14:07:20;12.10;99.90
23721;DHT22;42950;52.134;5.578;2023-04-15T14:09:46;12.00;99.90
23721;DHT22;42950;52.134;5.578;2023-04-15T14:12:12;12.00;99.90
23721;DHT22;42950;52.134;5.578;2023-04-15T14:14:38;11.80;99.90
23721;DHT22;42950;52.134;5.578;2023-04-15T14:17:04;11.60;99.90
23721;DHT22;42950;52.134;5.578;2023-04-15T14:19:30;11.50;99.90
23721;DHT22;42950;52.134;5.578;2023-04-15T14:21:56;11.50;99.90
23721;DHT22;42950;52.134;5.578;2023-04-15T14:24:22;11.60;99.90
23721;DHT22;42950;52.134;5.578;2023-04-15T14:26:47;11.70;99.90
23721;DHT22;42950;52.134;5.578;2023-04-15T14:29:13;11.70;99.90
23721;DHT22;42950;52.134;5.578;2023-04-15T14:31:39;11.70;99.90
23721;DHT22;42950;52.134;5.578;2023-04-15T14:34:04;11.80;99.90
23721;DHT22;42950;52.134;5.578;2023-04-15T14:36:30;11.70;99.90
23721;DHT22;42950;52.134;5.578;2023-04-15T14:38:56;11.60;99.90
23721;DHT22;42950;52.134;5.578;2023-04-15T14:41:22;11.50;99.90
23721;DHT22;42950;52.134;5.578;2023-04-15T14:43:48;11.40;99.90
23721;DHT22;42950;52.134;5.578;2023-04-15T14:46:14;11.30;99.90
23721;DHT22;42950;52.134;5.578;2023-04-15T14:48:40;11.20;99.90
23721;DHT22;42950;52.134;5.578;2023-04-15T14:51:06;11.20;99.90
23721;DHT22;42950;52.134;5.578;2023-04-15T14:53:31;11.20;99.90
23721;DHT22;42950;52.134;5.578;2023-04-15T14:55:57;11.20;99.90
23721;DHT22;42950;52.134;5.578;2023-04-15T14:58:23;11.10;99.90
23721;DHT22;42950;52.134;5.578;2023-04-15T15:00:48;11.00;99.90
23721;DHT22;42950;52.134;5.578;2023-04-15T15:03:14;10.90;99.90
23721;DHT22;42950;52.134;5.578;2023-04-15T15:05:40;10.80;99.90
23721;DHT22;42950;52.134;5.578;2023-04-15T15:08:07;10.90;99.90
23721;DHT22;42950;52.134;5.578;2023-04-15T15:10:34;10.90;99.90
23721;DHT22;42950;52.134;5.578;2023-04-15T15:13:01;10.90;99.90
23721;DHT22;42950;52.134;5.578;2023-04-15T15:15:27;10.90;99.90
23721;DHT22;42950;52.134;5.578;2023-04-15T15:17:53;10.80;99.90
23721;DHT22;42950;52.134;5.578;2023-04-15T15:20:18;10.80;99.90
23721;DHT22;42950;52.134;5.578;2023-04-15T15:22:44;10.70;99.90
23721;DHT22;42950;52.134;5.578;2023-04-15T15:25:10;10.80;99.90
23721;DHT22;42950;52.134;5.578;2023-04-15T15:27:35;10.70;99.90
23721;DHT22;42950;52.134;5.578;2023-04-15T15:30:02;10.80;99.90
23721;DHT22;42950;52.134;5.578;2023-04-15T15:32:27;10.70;99.90
23721;DHT22;42950;52.134;5.578;2023-04-15T15:34:53;10.70;99.90
23721;DHT22;42950;52.134;5.578;2023-04-15T15:37:19;10.60;99.90
23721;DHT22;42950;52.134;5.578;2023-04-15T15:39:45;10.70;99.90
23721;DHT22;42950;52.134;5.578;2023-04-15T15:42:10;10.60;99.90
23721;DHT22;42950;52.134;5.578;2023-04-15T15:44:36;10.60;99.90
23721;DHT22;42950;52.134;5.578;2023-04-15T15:47:03;10.50;99.90
23721;DHT22;42950;52.134;5.578;2023-04-15T15:49:29;10.50;99.90
23721;DHT22;42950;52.134;5.578;2023-04-15T15:51:55;10.40;99.90
23721;DHT22;42950;52.134;5.578;2023-04-15T15:54:21;10.20;99.90
23721;DHT22;42950;52.134;5.578;2023-04-15T15:56:47;10.20;99.90
23721;DHT22;42950;52.134;5.578;2023-04-15T15:59:12;10.20;99.90
23721;DHT22;42950;52.134;5.578;2023-04-15T16:01:38;10.30;99.90
23721;DHT22;42950;52.134;5.578;2023-04-15T16:04:04;10.20;99.90
23721;DHT22;42950;52.134;5.578;2023-04-15T16:06:30;10.20;99.90
23721;DHT22;42950;52.134;5.578;2023-04-15T16:08:56;10.20;99.90